sensor_id;sensor_type;location;lat;lon;timestamp;temperature;humidity
15991;DHT22;8100;50.994;4.538;2024-01-25T00:01:22;8.90;1.00
15991;DHT22;8100;50.994;4.538;2024-01-25T00:04:09;8.80;99.90
15991;DHT22;8100;50.994;4.538;2024-01-25T00:06:56;8.90;29.90
15991;DHT22;8100;50.994;4.538;2024-01-25T00:09:43;8.80;1.00
15991;DHT22;8100;50.994;4.538;2024-01-25T00:12:30;8.70;99.90
15991;DHT22;8100;50.994;4.538;2024-01-25T00:15:19;8.70;99.90
15991;DHT22;8100;50.994;4.538;2024-01-25T00:18:06;8.60;99.90
15991;DHT22;8100;50.994;4.538;2024-01-25T00:20:53;8.50;99.90
15991;DHT22;8100;50.994;4.538;2024-01-25T00:23:40;8.40;98.90
15991;DHT22;8100;50.994;4.538;2024-01-25T00:26:26;8.40;99.90
15991;DHT22;8100;50.994;4.538;2024-01-25T00:29:13;8.40;1.00
15991;DHT22;8100;50.994;4.538;2024-01-25T00:32:02;8.40;1.00
15991;DHT22;8100;50.994;4.538;2024-01-25T00:34:50;8.30;99.90
15991;DHT22;8100;50.994;4.538;2024-01-25T00:37:38;8.30;1.00
15991;DHT22;8100;50.994;4.538;2024-01-25T00:40:25;8.20;74.10
15991;DHT22;8100;50.994;4.538;2024-01-25T00:43:14;8.20;99.90
15991;DHT22;8100;50.994;4.538;2024-01-25T00:46:01;8.20;1.00
15991;DHT22;8100;50.994;4.538;2024-01-25T00:48:50;8.10;1.00
15991;DHT22;8100;50.994;4.538;2024-01-25T00:51:38;8.10;1.00
15991;DHT22;8100;50.994;4.538;2024-01-25T00:54:26;8.10;1.00
15991;DHT22;8100;50.994;4.538;2024-01-25T00:57:14;8.00;1.00
15991;DHT22;8100;50.994;4.538;2024-01-25T01:00:02;8.00;1.00
15991;DHT22;8100;50.994;4.538;2024-01-25T01:02:50;7.90;1.00
15991;DHT22;8100;50.994;4.538;2024-01-25T01:05:41;7.90;1.00
15991;DHT22;8100;50.994;4.538;2024-01-25T01:08:28;7.90;1.00
15991;DHT22;8100;50.994;4.538;2024-01-25T01:11:15;7.90;1.00
15991;DHT22;8100;50.994;4.538;2024-01-25T01:14:02;7.80;1.00
15991;DHT22;8100;50.994;4.538;2024-01-25T01:16:49;7.70;1.00
15991;DHT22;8100;50.994;4.538;2024-01-25T01:19:37;7.70;54.60
15991;DHT22;8100;50.994;4.538;2024-01-25T01:22:25;7.70;91.40
15991;DHT22;8100;50.994;4.538;2024-01-25T01:25:12;7.60;99.90
15991;DHT22;8100;50.994;4.538;2024-01-25T01:27:59;7.50;99.90
15991;DHT22;8100;50.994;4.538;2024-01-25T01:30:46;7.50;99.90
15991;DHT22;8100;50.994;4.538;2024-01-25T01:33:33;7.50;99.90
15991;DHT22;8100;50.994;4.538;2024-01-25T01:36:20;7.40;99.90
15991;DHT22;8100;50.994;4.538;2024-01-25T01:39:08;7.40;99.90
15991;DHT22;8100;50.994;4.538;2024-01-25T01:41:55;7.40;99.90
15991;DHT22;8100;50.994;4.538;2024-01-25T01:44:42;7.30;99.90
15991;DHT22;8100;50.994;4.538;2024-01-25T01:47:29;7.20;99.90
15991;DHT22;8100;50.994;4.538;2024-01-25T01:50:16;7.20;99.90
15991;DHT22;8100;50.994;4.538;2024-01-25T01:53:04;7.10;99.90
15991;DHT22;8100;50.994;4.538;2024-01-25T01:55:52;7.10;99.90
15991;DHT22;8100;50.994;4.538;2024-01-25T01:58:40;7.00;99.90
15991;DHT22;8100;50.994;4.538;2024-01-25T02:01:27;6.90;99.90
15991;DHT22;8100;50.994;4.538;2024-01-25T02:04:14;7.00;99.90
15991;DHT22;8100;50.994;4.538;2024-01-25T02:07:01;6.80;99.90
15991;DHT22;8100;50.994;4.538;2024-01-25T02:09:48;6.80;99.90
15991;DHT22;8100;50.994;4.538;2024-01-25T02:12:37;6.90;99.90
15991;DHT22;8100;50.994;4.538;2024-01-25T02:15:24;6.70;99.90
15991;DHT22;8100;50.994;4.538;2024-01-25T02:18:11;6.60;99.90
15991;DHT22;8100;50.994;4.538;2024-01-25T02:20:58;6.70;99.90
15991;DHT22;8100;50.994;4.538;2024-01-25T02:23:47;6.50;99.90
15991;DHT22;8100;50.994;4.538;2024-01-25T02:26:34;6.70;99.90
15991;DHT22;8100;50.994;4.538;2024-01-25T02:29:22;6.60;99.90
15991;DHT22;8100;50.994;4.538;2024-01-25T02:32:09;6.50;99.90
15991;DHT22;8100;50.994;4.538;2024-01-25T02:34:56;6.80;99.90
15991;DHT22;8100;50.994;4.538;2024-01-25T02:37:43;6.80;99.90
15991;DHT22;8100;50.994;4.538;2024-01-25T02:40:31;6.50;99.90
15991;DHT22;8100;50.994;4.538;2024-01-25T02:43:18;6.60;99.90
15991;DHT22;8100;50.994;4.538;2024-01-25T02:46:05;6.40;99.90
15991;DHT22;8100;50.994;4.538;2024-01-25T02:48:52;6.40;99.90
15991;DHT22;8100;50.994;4.538;2024-01-25T02:51:39;6.60;99.90
15991;DHT22;8100;50.994;4.538;2024-01-25T02:54:26;6.70;99.90
15991;DHT22;8100;50.994;4.538;2024-01-25T02:57:14;6.50;99.90
15991;DHT22;8100;50.994;4.538;2024-01-25T03:00:01;6.20;99.90
15991;DHT22;8100;50.994;4.538;2024-01-25T03:02:50;6.20;99.90
15991;DHT22;8100;50.994;4.538;2024-01-25T03:05:37;6.30;99.90
15991;DHT22;8100;50.994;4.538;2024-01-25T03:08:24;6.00;99.90
15991;DHT22;8100;50.994;4.538;2024-01-25T03:11:11;5.90;99.90
15991;DHT22;8100;50.994;4.538;2024-01-25T03:13:59;6.10;99.90
15991;DHT22;8100;50.994;4.538;2024-01-25T03:16:46;5.70;99.90
15991;DHT22;8100;50.994;4.538;2024-01-25T03:19:33;5.70;99.90
15991;DHT22;8100;50.994;4.538;2024-01-25T03:22:20;6.00;99.90
15991;DHT22;8100;50.994;4.538;2024-01-25T03:25:08;6.00;99.90
15991;DHT22;8100;50.994;4.538;2024-01-25T03:27:57;5.60;99.90
15991;DHT22;8100;50.994;4.538;2024-01-25T03:30:45;5.80;99.90
15991;DHT22;8100;50.994;4.538;2024-01-25T03:33:32;5.70;99.90
15991;DHT22;8100;50.994;4.538;2024-01-25T03:36:19;6.00;99.90
15991;DHT22;8100;50.994;4.538;2024-01-25T03:39:06;5.90;99.90
15991;DHT22;8100;50.994;4.538;2024-01-25T03:41:53;5.70;99.90
15991;DHT22;8100;50.994;4.538;2024-01-25T03:44:40;5.10;99.90
15991;DHT22;8100;50.994;4.538;2024-01-25T03:47:29;5.10;99.90
15991;DHT22;8100;50.994;4.538;2024-01-25T03:50:16;5.50;99.90
15991;DHT22;8100;50.994;4.538;2024-01-25T03:53:03;5.00;99.90
15991;DHT22;8100;50.994;4.538;2024-01-25T03:55:52;5.30;99.90
15991;DHT22;8100;50.994;4.538;2024-01-25T03:58:39;5.00;99.90
15991;DHT22;8100;50.994;4.538;2024-01-25T04:01:26;5.30;99.90
15991;DHT22;8100;50.994;4.538;2024-01-25T04:04:14;5.10;99.90
15991;DHT22;8100;50.994;4.538;2024-01-25T04:07:02;5.00;99.90
15991;DHT22;8100;50.994;4.538;2024-01-25T04:09:49;5.00;99.90
15991;DHT22;8100;50.994;4.538;2024-01-25T04:12:36;4.80;99.90
15991;DHT22;8100;50.994;4.538;2024-01-25T04:15:23;4.40;99.90
15991;DHT22;8100;50.994;4.538;2024-01-25T04:18:10;4.50;99.90
15991;DHT22;8100;50.994;4.538;2024-01-25T04:20:58;4.30;99.90
15991;DHT22;8100;50.994;4.538;2024-01-25T04:23:46;4.20;99.90
15991;DHT22;8100;50.994;4.538;2024-01-25T04:26:34;4.40;99.90
15991;DHT22;8100;50.994;4.538;2024-01-25T04:29:20;4.30;99.90
15991;DHT22;8100;50.994;4.538;2024-01-25T04:32:08;4.40;99.90
15991;DHT22;8100;50.994;4.538;2024-01-25T04:34:55;4.40;99.90
15991;DHT22;8100;50.994;4.538;2024-01-25T04:37:43;4.50;99.90
15991;DHT22;8100;50.994;4.538;2024-01-25T04:40:30;4.00;99.90
15991;DHT22;8100;50.994;4.538;2024-01-25T04:43:17;3.90;99.90
15991;DHT22;8100;50.994;4.538;2024-01-25T04:46:04;4.30;99.90
15991;DHT22;8100;50.994;4.538;2024-01-25T04:48:51;4.20;99.90
15991;DHT22;8100;50.994;4.538;2024-01-25T04:51:38;4.20;99.90
15991;DHT22;8100;50.994;4.538;2024-01-25T04:54:26;3.90;99.90
15991;DHT22;8100;50.994;4.538;2024-01-25T04:57:13;3.60;99.90
15991;DHT22;8100;50.994;4.538;2024-01-25T05:00:00;3.80;99.90
15991;DHT22;8100;50.994;4.538;2024-01-25T05:02:47;4.10;99.90
15991;DHT22;8100;50.994;4.538;2024-01-25T05:05:34;3.80;99.90
15991;DHT22;8100;50.994;4.538;2024-01-25T05:08:21;3.80;99.90
15991;DHT22;8100;50.994;4.538;2024-01-25T05:11:10;3.70;99.90
15991;DHT22;8100;50.994;4.538;2024-01-25T05:13:56;3.70;99.90
15991;DHT22;8100;50.994;4.538;2024-01-25T05:16:43;4.00;99.90
15991;DHT22;8100;50.994;4.538;2024-01-25T05:19:30;4.00;99.90
15991;DHT22;8100;50.994;4.538;2024-01-25T05:22:17;3.80;99.90
15991;DHT22;8100;50.994;4.538;2024-01-25T05:25:07;3.30;99.90
15991;DHT22;8100;50.994;4.538;2024-01-25T05:27:56;3.60;99.90
15991;DHT22;8100;50.994;4.538;2024-01-25T05:30:43;3.30;99.90
15991;DHT22;8100;50.994;4.538;2024-01-25T05:33:30;3.30;99.90
15991;DHT22;8100;50.994;4.538;2024-01-25T05:36:17;3.70;99.90
15991;DHT22;8100;50.994;4.538;2024-01-25T05:39:05;3.70;99.90
15991;DHT22;8100;50.994;4.538;2024-01-25T05:41:53;3.40;99.90
15991;DHT22;8100;50.994;4.538;2024-01-25T05:44:41;3.60;99.90
15991;DHT22;8100;50.994;4.538;2024-01-25T05:47:28;3.20;99.90
15991;DHT22;8100;50.994;4.538;2024-01-25T05:50:15;3.10;99.90
15991;DHT22;8100;50.994;4.538;2024-01-25T05:53:02;3.00;99.90
15991;DHT22;8100;50.994;4.538;2024-01-25T05:55:49;3.00;99.90
15991;DHT22;8100;50.994;4.538;2024-01-25T05:58:36;3.10;99.90
15991;DHT22;8100;50.994;4.538;2024-01-25T06:01:25;3.20;99.90
15991;DHT22;8100;50.994;4.538;2024-01-25T06:04:12;3.00;99.90
15991;DHT22;8100;50.994;4.538;2024-01-25T06:06:59;3.50;99.90
15991;DHT22;8100;50.994;4.538;2024-01-25T06:09:45;3.20;99.90
15991;DHT22;8100;50.994;4.538;2024-01-25T06:12:33;3.00;99.90
15991;DHT22;8100;50.994;4.538;2024-01-25T06:15:20;3.20;99.90
15991;DHT22;8100;50.994;4.538;2024-01-25T06:18:08;4.10;99.90
15991;DHT22;8100;50.994;4.538;2024-01-25T06:20:55;3.70;99.90
15991;DHT22;8100;50.994;4.538;2024-01-25T06:23:42;3.90;99.90
15991;DHT22;8100;50.994;4.538;2024-01-25T06:26:29;3.50;99.90
15991;DHT22;8100;50.994;4.538;2024-01-25T06:29:16;3.80;99.90
15991;DHT22;8100;50.994;4.538;2024-01-25T06:32:03;4.40;99.90
15991;DHT22;8100;50.994;4.538;2024-01-25T06:34:52;4.70;99.90
15991;DHT22;8100;50.994;4.538;2024-01-25T06:37:39;4.80;99.90
15991;DHT22;8100;50.994;4.538;2024-01-25T06:40:26;4.30;99.90
15991;DHT22;8100;50.994;4.538;2024-01-25T06:43:13;4.90;99.90
15991;DHT22;8100;50.994;4.538;2024-01-25T06:46:00;4.50;99.90
15991;DHT22;8100;50.994;4.538;2024-01-25T06:48:48;4.90;99.90
15991;DHT22;8100;50.994;4.538;2024-01-25T06:51:37;5.30;99.90
15991;DHT22;8100;50.994;4.538;2024-01-25T06:54:24;4.60;99.90
15991;DHT22;8100;50.994;4.538;2024-01-25T06:57:11;4.90;99.90
15991;DHT22;8100;50.994;4.538;2024-01-25T06:59:59;4.30;99.90
15991;DHT22;8100;50.994;4.538;2024-01-25T07:02:47;4.20;99.90
15991;DHT22;8100;50.994;4.538;2024-01-25T07:05:34;4.40;99.90
15991;DHT22;8100;50.994;4.538;2024-01-25T07:08:22;4.30;99.90
15991;DHT22;8100;50.994;4.538;2024-01-25T07:11:09;4.20;99.90
15991;DHT22;8100;50.994;4.538;2024-01-25T07:13:57;4.30;99.90
15991;DHT22;8100;50.994;4.538;2024-01-25T07:16:44;4.80;99.90
15991;DHT22;8100;50.994;4.538;2024-01-25T07:19:30;4.10;99.90
15991;DHT22;8100;50.994;4.538;2024-01-25T07:22:17;3.90;99.90
15991;DHT22;8100;50.994;4.538;2024-01-25T07:25:07;4.40;99.90
15991;DHT22;8100;50.994;4.538;2024-01-25T07:27:53;5.20;99.90
15991;DHT22;8100;50.994;4.538;2024-01-25T07:30:40;4.80;99.90
15991;DHT22;8100;50.994;4.538;2024-01-25T07:33:27;4.00;99.90
15991;DHT22;8100;50.994;4.538;2024-01-25T07:36:14;4.90;99.90
15991;DHT22;8100;50.994;4.538;2024-01-25T07:39:01;4.60;99.90
15991;DHT22;8100;50.994;4.538;2024-01-25T07:41:51;4.90;99.90
15991;DHT22;8100;50.994;4.538;2024-01-25T07:44:38;4.30;99.90
15991;DHT22;8100;50.994;4.538;2024-01-25T07:47:25;5.30;99.90
15991;DHT22;8100;50.994;4.538;2024-01-25T07:50:12;5.10;99.90
15991;DHT22;8100;50.994;4.538;2024-01-25T07:52:59;4.60;99.90
15991;DHT22;8100;50.994;4.538;2024-01-25T07:55:48;4.00;99.90
15991;DHT22;8100;50.994;4.538;2024-01-25T07:58:37;4.80;99.90
15991;DHT22;8100;50.994;4.538;2024-01-25T08:01:24;4.10;99.90
15991;DHT22;8100;50.994;4.538;2024-01-25T08:04:11;4.80;99.90
15991;DHT22;8100;50.994;4.538;2024-01-25T08:06:58;3.60;99.90
15991;DHT22;8100;50.994;4.538;2024-01-25T08:09:45;4.20;99.90
15991;DHT22;8100;50.994;4.538;2024-01-25T08:12:32;4.40;99.90
15991;DHT22;8100;50.994;4.538;2024-01-25T08:15:20;3.60;99.90
15991;DHT22;8100;50.994;4.538;2024-01-25T08:18:07;4.60;99.90
15991;DHT22;8100;50.994;4.538;2024-01-25T08:20:54;3.50;99.90
15991;DHT22;8100;50.994;4.538;2024-01-25T08:23:41;3.60;99.90
15991;DHT22;8100;50.994;4.538;2024-01-25T08:26:28;3.80;99.90
15991;DHT22;8100;50.994;4.538;2024-01-25T08:29:15;4.80;99.90
15991;DHT22;8100;50.994;4.538;2024-01-25T08:32:04;4.30;99.90
15991;DHT22;8100;50.994;4.538;2024-01-25T08:34:51;3.90;99.90
15991;DHT22;8100;50.994;4.538;2024-01-25T08:37:38;5.30;99.90
15991;DHT22;8100;50.994;4.538;2024-01-25T08:40:25;4.60;99.90
15991;DHT22;8100;50.994;4.538;2024-01-25T08:43:12;5.80;99.90
15991;DHT22;8100;50.994;4.538;2024-01-25T08:45:59;6.00;99.90
15991;DHT22;8100;50.994;4.538;2024-01-25T08:48:49;6.00;99.90
15991;DHT22;8100;50.994;4.538;2024-01-25T08:51:36;5.70;99.90
15991;DHT22;8100;50.994;4.538;2024-01-25T08:54:23;6.30;99.90
15991;DHT22;8100;50.994;4.538;2024-01-25T08:57:10;6.40;99.90
15991;DHT22;8100;50.994;4.538;2024-01-25T08:59:57;5.30;99.90
15991;DHT22;8100;50.994;4.538;2024-01-25T09:02:44;5.30;99.90
15991;DHT22;8100;50.994;4.538;2024-01-25T09:05:32;6.50;99.90
15991;DHT22;8100;50.994;4.538;2024-01-25T09:08:23;6.20;99.90
15991;DHT22;8100;50.994;4.538;2024-01-25T09:11:10;5.60;99.90
15991;DHT22;8100;50.994;4.538;2024-01-25T09:13:58;6.80;99.90
15991;DHT22;8100;50.994;4.538;2024-01-25T09:16:44;6.80;99.90
15991;DHT22;8100;50.994;4.538;2024-01-25T09:19:31;5.90;99.90
15991;DHT22;8100;50.994;4.538;2024-01-25T09:22:20;5.80;99.90
15991;DHT22;8100;50.994;4.538;2024-01-25T09:25:07;6.40;99.90
15991;DHT22;8100;50.994;4.538;2024-01-25T09:27:54;5.80;99.90
15991;DHT22;8100;50.994;4.538;2024-01-25T09:30:42;6.90;99.90
15991;DHT22;8100;50.994;4.538;2024-01-25T09:33:29;6.50;99.90
15991;DHT22;8100;50.994;4.538;2024-01-25T09:36:17;5.90;99.90
15991;DHT22;8100;50.994;4.538;2024-01-25T09:39:05;6.30;99.90
15991;DHT22;8100;50.994;4.538;2024-01-25T09:41:52;7.20;99.90
15991;DHT22;8100;50.994;4.538;2024-01-25T09:44:40;6.10;99.90
15991;DHT22;8100;50.994;4.538;2024-01-25T09:47:29;7.10;99.90
15991;DHT22;8100;50.994;4.538;2024-01-25T09:50:16;6.70;99.90
15991;DHT22;8100;50.994;4.538;2024-01-25T09:53:03;6.20;99.90
15991;DHT22;8100;50.994;4.538;2024-01-25T09:56:00;7.10;99.90
15991;DHT22;8100;50.994;4.538;2024-01-25T09:58:48;7.20;99.90
15991;DHT22;8100;50.994;4.538;2024-01-25T10:01:35;6.30;99.90
15991;DHT22;8100;50.994;4.538;2024-01-25T10:04:23;6.40;99.90
15991;DHT22;8100;50.994;4.538;2024-01-25T10:07:10;6.90;99.90
15991;DHT22;8100;50.994;4.538;2024-01-25T10:09:57;6.60;99.90
15991;DHT22;8100;50.994;4.538;2024-01-25T10:12:45;6.80;99.90
15991;DHT22;8100;50.994;4.538;2024-01-25T10:15:33;7.30;99.90
15991;DHT22;8100;50.994;4.538;2024-01-25T10:18:21;7.30;99.90
15991;DHT22;8100;50.994;4.538;2024-01-25T10:21:09;7.10;99.90
15991;DHT22;8100;50.994;4.538;2024-01-25T10:23:56;7.10;99.90
15991;DHT22;8100;50.994;4.538;2024-01-25T10:26:44;7.00;99.90
15991;DHT22;8100;50.994;4.538;2024-01-25T10:29:34;7.00;99.90
15991;DHT22;8100;50.994;4.538;2024-01-25T10:32:21;7.70;99.90
15991;DHT22;8100;50.994;4.538;2024-01-25T10:35:09;6.90;99.90
15991;DHT22;8100;50.994;4.538;2024-01-25T10:37:58;7.60;99.90
15991;DHT22;8100;50.994;4.538;2024-01-25T10:40:46;7.20;99.90
15991;DHT22;8100;50.994;4.538;2024-01-25T10:43:34;7.60;99.90
15991;DHT22;8100;50.994;4.538;2024-01-25T10:46:23;7.50;99.90
15991;DHT22;8100;50.994;4.538;2024-01-25T10:49:10;7.40;99.90
15991;DHT22;8100;50.994;4.538;2024-01-25T10:51:58;7.70;99.90
15991;DHT22;8100;50.994;4.538;2024-01-25T10:54:45;7.60;99.90
15991;DHT22;8100;50.994;4.538;2024-01-25T10:57:35;7.70;99.90
15991;DHT22;8100;50.994;4.538;2024-01-25T11:00:23;7.30;99.90
15991;DHT22;8100;50.994;4.538;2024-01-25T11:03:11;7.40;99.90
15991;DHT22;8100;50.994;4.538;2024-01-25T11:06:09;7.50;99.90
15991;DHT22;8100;50.994;4.538;2024-01-25T11:09:04;7.40;99.90
15991;DHT22;8100;50.994;4.538;2024-01-25T11:11:54;7.90;99.90
15991;DHT22;8100;50.994;4.538;2024-01-25T11:14:41;8.00;99.90
15991;DHT22;8100;50.994;4.538;2024-01-25T11:17:32;7.90;99.90
15991;DHT22;8100;50.994;4.538;2024-01-25T11:20:22;8.10;99.90
15991;DHT22;8100;50.994;4.538;2024-01-25T11:23:09;8.00;99.90
15991;DHT22;8100;50.994;4.538;2024-01-25T11:25:56;7.90;99.90
15991;DHT22;8100;50.994;4.538;2024-01-25T11:28:44;8.30;99.90
15991;DHT22;8100;50.994;4.538;2024-01-25T11:31:31;8.00;99.90
15991;DHT22;8100;50.994;4.538;2024-01-25T11:34:18;8.00;99.90
15991;DHT22;8100;50.994;4.538;2024-01-25T11:37:07;8.10;99.90
15991;DHT22;8100;50.994;4.538;2024-01-25T11:39:54;8.20;99.90
15991;DHT22;8100;50.994;4.538;2024-01-25T11:42:42;8.50;99.90
15991;DHT22;8100;50.994;4.538;2024-01-25T11:45:29;8.30;99.90
15991;DHT22;8100;50.994;4.538;2024-01-25T11:48:18;8.60;99.90
15991;DHT22;8100;50.994;4.538;2024-01-25T11:51:05;8.60;99.90
15991;DHT22;8100;50.994;4.538;2024-01-25T11:53:53;8.70;99.90
15991;DHT22;8100;50.994;4.538;2024-01-25T11:56:42;8.80;99.90
15991;DHT22;8100;50.994;4.538;2024-01-25T11:59:29;8.80;99.90
15991;DHT22;8100;50.994;4.538;2024-01-25T12:02:16;8.90;99.90
15991;DHT22;8100;50.994;4.538;2024-01-25T12:05:04;8.70;99.90
15991;DHT22;8100;50.994;4.538;2024-01-25T12:07:52;8.90;99.90
15991;DHT22;8100;50.994;4.538;2024-01-25T12:10:40;8.80;99.90
15991;DHT22;8100;50.994;4.538;2024-01-25T12:13:27;8.70;99.90
15991;DHT22;8100;50.994;4.538;2024-01-25T12:16:14;8.80;99.90
15991;DHT22;8100;50.994;4.538;2024-01-25T12:19:01;8.70;99.90
15991;DHT22;8100;50.994;4.538;2024-01-25T12:21:49;8.80;99.90
15991;DHT22;8100;50.994;4.538;2024-01-25T12:24:36;8.60;99.90
15991;DHT22;8100;50.994;4.538;2024-01-25T12:27:26;8.70;99.90
15991;DHT22;8100;50.994;4.538;2024-01-25T12:30:13;8.90;99.90
15991;DHT22;8100;50.994;4.538;2024-01-25T12:33:00;9.00;99.90
15991;DHT22;8100;50.994;4.538;2024-01-25T12:35:47;9.10;99.90
15991;DHT22;8100;50.994;4.538;2024-01-25T12:38:34;9.10;99.90
15991;DHT22;8100;50.994;4.538;2024-01-25T12:41:21;9.20;99.90
15991;DHT22;8100;50.994;4.538;2024-01-25T12:44:09;9.30;99.90
15991;DHT22;8100;50.994;4.538;2024-01-25T12:46:56;9.10;99.90
15991;DHT22;8100;50.994;4.538;2024-01-25T12:49:47;9.00;99.90
15991;DHT22;8100;50.994;4.538;2024-01-25T12:52:33;9.00;99.90
15991;DHT22;8100;50.994;4.538;2024-01-25T12:55:21;9.10;99.90
15991;DHT22;8100;50.994;4.538;2024-01-25T12:58:07;8.90;99.90
15991;DHT22;8100;50.994;4.538;2024-01-25T13:00:56;8.80;99.90
15991;DHT22;8100;50.994;4.538;2024-01-25T13:03:43;8.90;99.90
15991;DHT22;8100;50.994;4.538;2024-01-25T13:06:32;9.20;99.90
15991;DHT22;8100;50.994;4.538;2024-01-25T13:09:19;9.00;99.90
15991;DHT22;8100;50.994;4.538;2024-01-25T13:12:07;9.10;99.90
15991;DHT22;8100;50.994;4.538;2024-01-25T13:14:54;9.10;99.90
15991;DHT22;8100;50.994;4.538;2024-01-25T13:17:42;8.80;99.90
15991;DHT22;8100;50.994;4.538;2024-01-25T13:20:29;9.20;99.90
15991;DHT22;8100;50.994;4.538;2024-01-25T13:23:16;9.00;99.90
15991;DHT22;8100;50.994;4.538;2024-01-25T13:26:03;9.20;99.90
15991;DHT22;8100;50.994;4.538;2024-01-25T13:28:51;8.90;99.90
15991;DHT22;8100;50.994;4.538;2024-01-25T13:31:38;9.00;99.90
15991;DHT22;8100;50.994;4.538;2024-01-25T13:34:26;9.20;99.90
15991;DHT22;8100;50.994;4.538;2024-01-25T13:37:13;9.10;99.90
15991;DHT22;8100;50.994;4.538;2024-01-25T13:40:00;9.20;99.90
15991;DHT22;8100;50.994;4.538;2024-01-25T13:42:47;9.60;99.90
15991;DHT22;8100;50.994;4.538;2024-01-25T13:45:34;9.70;99.90
15991;DHT22;8100;50.994;4.538;2024-01-25T13:48:21;9.70;99.90
15991;DHT22;8100;50.994;4.538;2024-01-25T13:51:09;9.30;99.90
15991;DHT22;8100;50.994;4.538;2024-01-25T13:53:56;9.70;99.90
15991;DHT22;8100;50.994;4.538;2024-01-25T13:56:43;9.60;99.90
15991;DHT22;8100;50.994;4.538;2024-01-25T13:59:30;9.20;99.90
15991;DHT22;8100;50.994;4.538;2024-01-25T14:02:17;9.50;99.90
15991;DHT22;8100;50.994;4.538;2024-01-25T14:05:05;9.40;99.90
15991;DHT22;8100;50.994;4.538;2024-01-25T14:07:53;9.70;99.90
15991;DHT22;8100;50.994;4.538;2024-01-25T14:10:40;9.40;99.90
15991;DHT22;8100;50.994;4.538;2024-01-25T14:13:27;9.20;99.90
15991;DHT22;8100;50.994;4.538;2024-01-25T14:16:14;9.20;99.90
15991;DHT22;8100;50.994;4.538;2024-01-25T14:19:02;9.20;99.90
15991;DHT22;8100;50.994;4.538;2024-01-25T14:21:50;9.70;99.90
15991;DHT22;8100;50.994;4.538;2024-01-25T14:24:38;9.20;99.90
15991;DHT22;8100;50.994;4.538;2024-01-25T14:27:25;9.90;99.90
15991;DHT22;8100;50.994;4.538;2024-01-25T14:30:12;9.80;99.90
15991;DHT22;8100;50.994;4.538;2024-01-25T14:32:59;9.80;99.90
15991;DHT22;8100;50.994;4.538;2024-01-25T14:35:46;9.90;99.90
15991;DHT22;8100;50.994;4.538;2024-01-25T14:38:33;9.90;99.90
15991;DHT22;8100;50.994;4.538;2024-01-25T14:41:22;9.30;99.90
15991;DHT22;8100;50.994;4.538;2024-01-25T14:44:09;9.60;99.90
15991;DHT22;8100;50.994;4.538;2024-01-25T14:46:56;10.10;99.90
15991;DHT22;8100;50.994;4.538;2024-01-25T14:49:44;9.50;99.90
15991;DHT22;8100;50.994;4.538;2024-01-25T14:52:31;10.20;99.90
15991;DHT22;8100;50.994;4.538;2024-01-25T14:55:19;9.50;99.90
15991;DHT22;8100;50.994;4.538;2024-01-25T14:58:08;10.20;99.90
15991;DHT22;8100;50.994;4.538;2024-01-25T15:00:55;9.60;99.90
15991;DHT22;8100;50.994;4.538;2024-01-25T15:03:42;9.90;99.90
15991;DHT22;8100;50.994;4.538;2024-01-25T15:06:30;9.90;99.90
15991;DHT22;8100;50.994;4.538;2024-01-25T15:09:17;9.60;99.90
15991;DHT22;8100;50.994;4.538;2024-01-25T15:12:04;10.30;99.90
15991;DHT22;8100;50.994;4.538;2024-01-25T15:14:53;10.10;99.90
15991;DHT22;8100;50.994;4.538;2024-01-25T15:17:40;9.70;99.90
15991;DHT22;8100;50.994;4.538;2024-01-25T15:20:27;9.70;99.90
15991;DHT22;8100;50.994;4.538;2024-01-25T15:23:14;10.20;99.90
15991;DHT22;8100;50.994;4.538;2024-01-25T15:26:03;9.80;99.90
15991;DHT22;8100;50.994;4.538;2024-01-25T15:28:51;9.70;99.90
15991;DHT22;8100;50.994;4.538;2024-01-25T15:31:39;10.10;99.90
15991;DHT22;8100;50.994;4.538;2024-01-25T15:34:26;9.90;99.90
15991;DHT22;8100;50.994;4.538;2024-01-25T15:37:14;9.60;99.90
15991;DHT22;8100;50.994;4.538;2024-01-25T15:40:01;10.20;99.90
15991;DHT22;8100;50.994;4.538;2024-01-25T15:42:53;9.60;99.90
15991;DHT22;8100;50.994;4.538;2024-01-25T15:45:41;10.30;99.90
15991;DHT22;8100;50.994;4.538;2024-01-25T15:48:30;9.80;99.90
15991;DHT22;8100;50.994;4.538;2024-01-25T15:51:17;10.20;99.90
15991;DHT22;8100;50.994;4.538;2024-01-25T15:54:04;10.20;99.90
15991;DHT22;8100;50.994;4.538;2024-01-25T15:56:51;10.30;99.90
15991;DHT22;8100;50.994;4.538;2024-01-25T15:59:38;10.20;99.90
15991;DHT22;8100;50.994;4.538;2024-01-25T16:02:25;10.30;99.90
15991;DHT22;8100;50.994;4.538;2024-01-25T16:05:13;10.20;99.90
15991;DHT22;8100;50.994;4.538;2024-01-25T16:08:01;10.10;99.90
15991;DHT22;8100;50.994;4.538;2024-01-25T16:10:48;10.40;99.90
15991;DHT22;8100;50.994;4.538;2024-01-25T16:13:35;9.70;99.90
15991;DHT22;8100;50.994;4.538;2024-01-25T16:16:22;9.90;99.90
15991;DHT22;8100;50.994;4.538;2024-01-25T16:19:09;10.10;99.90
15991;DHT22;8100;50.994;4.538;2024-01-25T16:21:57;10.10;99.90
15991;DHT22;8100;50.994;4.538;2024-01-25T16:24:45;9.70;99.90
15991;DHT22;8100;50.994;4.538;2024-01-25T16:27:32;9.70;99.90
15991;DHT22;8100;50.994;4.538;2024-01-25T16:30:19;10.20;99.90
15991;DHT22;8100;50.994;4.538;2024-01-25T16:33:06;10.00;99.90
15991;DHT22;8100;50.994;4.538;2024-01-25T16:35:53;9.90;99.90
15991;DHT22;8100;50.994;4.538;2024-01-25T16:38:42;10.30;99.90
15991;DHT22;8100;50.994;4.538;2024-01-25T16:41:28;10.30;99.90
15991;DHT22;8100;50.994;4.538;2024-01-25T16:44:16;10.10;99.90
15991;DHT22;8100;50.994;4.538;2024-01-25T16:47:03;10.30;99.90
15991;DHT22;8100;50.994;4.538;2024-01-25T16:49:50;10.30;99.90
15991;DHT22;8100;50.994;4.538;2024-01-25T16:52:37;10.20;99.90
15991;DHT22;8100;50.994;4.538;2024-01-25T16:55:25;10.30;99.90
15991;DHT22;8100;50.994;4.538;2024-01-25T16:58:12;10.10;99.90
15991;DHT22;8100;50.994;4.538;2024-01-25T17:00:59;9.70;99.90
15991;DHT22;8100;50.994;4.538;2024-01-25T17:03:46;10.20;99.90
15991;DHT22;8100;50.994;4.538;2024-01-25T17:06:33;9.70;99.90
15991;DHT22;8100;50.994;4.538;2024-01-25T17:09:20;10.20;99.90
15991;DHT22;8100;50.994;4.538;2024-01-25T17:12:08;9.60;99.90
15991;DHT22;8100;50.994;4.538;2024-01-25T17:14:59;9.80;99.90
15991;DHT22;8100;50.994;4.538;2024-01-25T17:17:46;10.20;99.90
15991;DHT22;8100;50.994;4.538;2024-01-25T17:20:33;9.60;99.90
15991;DHT22;8100;50.994;4.538;2024-01-25T17:23:20;9.90;99.90
15991;DHT22;8100;50.994;4.538;2024-01-25T17:26:07;9.90;99.90
15991;DHT22;8100;50.994;4.538;2024-01-25T17:28:55;10.00;99.90
15991;DHT22;8100;50.994;4.538;2024-01-25T17:31:42;9.60;99.90
15991;DHT22;8100;50.994;4.538;2024-01-25T17:34:29;10.10;99.90
15991;DHT22;8100;50.994;4.538;2024-01-25T17:37:16;9.60;99.90
15991;DHT22;8100;50.994;4.538;2024-01-25T17:40:04;9.60;99.90
15991;DHT22;8100;50.994;4.538;2024-01-25T17:42:51;10.10;99.90
15991;DHT22;8100;50.994;4.538;2024-01-25T17:45:39;10.10;99.90
15991;DHT22;8100;50.994;4.538;2024-01-25T17:48:26;9.70;99.90
15991;DHT22;8100;50.994;4.538;2024-01-25T17:51:13;9.60;99.90
15991;DHT22;8100;50.994;4.538;2024-01-25T17:54:01;9.80;99.90
15991;DHT22;8100;50.994;4.538;2024-01-25T17:56:48;9.90;99.90
15991;DHT22;8100;50.994;4.538;2024-01-25T17:59:35;9.50;99.90
15991;DHT22;8100;50.994;4.538;2024-01-25T18:02:24;9.60;99.90
15991;DHT22;8100;50.994;4.538;2024-01-25T18:05:11;10.30;99.90
15991;DHT22;8100;50.994;4.538;2024-01-25T18:07:58;9.50;99.90
15991;DHT22;8100;50.994;4.538;2024-01-25T18:10:45;10.30;99.90